• Join FlightAware (Why Join?)
  • Login
  • US Flag 
11:38AM EDT


 

Airport Tracker/Info


-or-


 

Live Flight TrackerFlight Track Log ✈ UAL4660 ✈ 11-Dec-2013 ✈ KDEN - KISN

Flight Track Log - Related Links

Times and Time Zones

All times are in EST time to prevent confusion due to time zone crossing. See the UAL4660 flight status page for this flight to view local times or setup timezone preferences in your user account.

Time Position Orientation Groundspeed Altitude Reporting Facility
EST Latitude Longitude Course Direction KTS MPH feet Rate Location/Type
08:17PM 39.8833 -104.5500 21° North 199 229 7,500  Level Denver TRACON
08:17PM 39.9000 -104.4833 72° East 247 284 8,800 1,920 Climbing Denver TRACON
08:19PM 39.9500 -104.4000 52° Northeast 284 327 11,400 2,160 Climbing Denver TRACON
08:20PM 40.0333 -104.3833 North 278 320 13,400 1,500 Climbing Denver TRACON
08:21PM 40.1000 -104.4167 339° North 310 357 14,500 1,380 Climbing Denver TRACON
08:22PM 40.6071 -104.5918 21° North  Level Estimated
08:22PM 40.2200 -104.4372 353° North 333 383 16,800  Level Denver Center
08:23PM 40.3125 -104.4297 North 334 384 17,900 1,200 Climbing Denver Center
08:24PM 40.4175 -104.4217 North 352 405 19,300 1,200 Climbing Denver Center
08:25PM 40.5158 -104.4119 North 356 410 20,500 1,200 Climbing Denver Center
08:26PM 40.6253 -104.4031 North 370 426 21,800 1,200 Climbing Denver Center
08:27PM 40.7325 -104.3931 North 370 426 23,000 1,200 Climbing Denver Center
08:28PM 40.8169 -104.3619 16° North 372 428 24,300 1,500 Climbing Denver Center
08:29PM 40.9311 -104.3150 17° North 363 418 26,200 1,560 Climbing Denver Center
08:30PM 41.0206 -104.2753 19° North 355 409 27,600 1,500 Climbing Denver Center
08:31PM 41.1228 -104.2586 North 336 387 29,300 1,500 Climbing Denver Center
08:32PM 41.2092 -104.2542 North 326 375 30,800 1,140 Climbing Denver Center
08:33PM 41.2928 -104.2494 North 318 366 31,700 720 Climbing Denver Center
08:35PM 41.3953 -104.2406 North 328 377 32,500 960 Climbing Denver Center
08:36PM 41.5147 -104.2319 North 336 387 33,900 720 Climbing Denver Center
08:37PM 41.6047 -104.2250 North 337 388 34,000  Climbing Denver Center
08:38PM 41.7172 -104.2167 North 359 413 34,000  Level Denver Center
08:39PM 41.8161 -104.2078 North 371 427 34,000  Level Denver Center
08:40PM 41.9308 -104.1978 North 371 427 34,000  Level Denver Center
08:41PM 42.0481 -104.1883 North 376 433 34,000  Level Denver Center
08:42PM 42.1608 -104.1794 North 367 422 34,000  Level Denver Center
08:43PM 42.2561 -104.1722 North 360 414 34,000  Level Denver Center
08:44PM 42.3656 -104.1628 North 356 410 34,000  Level Denver Center
08:45PM 42.4589 -104.1550 North 354 407 34,000  Level Denver Center
08:46PM 42.5689 -104.1461 North 356 410 34,000  Level Denver Center
08:47PM 42.6633 -104.1378 North 357 411 34,000  Level Denver Center
08:48PM 42.7742 -104.1303 North 358 412 34,000  Level Denver Center
08:49PM 42.8700 -104.1211 North 360 414 34,000  Level Denver Center
08:50PM 42.9808 -104.1122 North 360 414 34,000  Level Denver Center
08:51PM 43.0761 -104.1039 North 359 413 34,000  Level Denver Center
08:52PM 43.1875 -104.0947 North 359 413 34,000  Level Denver Center
08:53PM 43.2833 -104.0864 North 360 414 34,000  Level Denver Center
08:54PM 43.3961 -104.0772 North 362 417 34,000  Level Denver Center
08:55PM 43.4928 -104.0686 North 364 419 34,000  Level Denver Center
08:56PM 43.6050 -104.0594 North 363 418 34,000  Level Denver Center
08:57PM 43.6853 -104.0531 North 362 417 34,000  Level Denver Center
08:58PM 43.8136 -104.0425 North 362 417 34,000  Level Denver Center
09:00PM 43.9250 -104.0333 North 361 415 34,000  Level Denver Center
09:01PM 44.0361 -104.0233 North 359 413 34,000  Level Denver Center
09:02PM 44.1311 -104.0144 North 357 411 34,000  Level Denver Center
09:03PM 44.2586 -104.0044 North 359 413 34,000  Level Denver Center
09:04PM 44.3686 -103.9947 North 356 410 34,000  Level Denver Center
09:05PM 44.4633 -103.9858 North 356 410 34,000  Level Denver Center
09:06PM 44.5572 -103.9792 North 354 407 34,000  Level Denver Center
09:07PM 44.6650 -103.9683 North 350 403 34,000  Level Denver Center
09:08PM 44.7581 -103.9603 North 348 400 34,000  Level Denver Center
09:09PM 44.8656 -103.9525 North 347 399 34,000  Level Denver Center
09:10PM 44.9278 -103.9456 North 347 399 34,000  Level Salt Lake Center
09:11PM 45.0194 -103.9375 North 345 397 34,000  Level Salt Lake Center
09:12PM 45.1261 -103.9275 North 345 397 34,000  Level Salt Lake Center
09:13PM 45.2078 -103.9200 North 344 396 34,000  Level Salt Lake Center
09:14PM 45.3022 -103.9106 North 342 394 34,000  Level Salt Lake Center
09:15PM 45.4175 -103.9006 North 345 397 34,000  Level Salt Lake Center
09:16PM 45.5139 -103.8906 North 347 399 34,000  Level Salt Lake Center
09:17PM 45.6097 -103.8831 North 346 398 34,000  Level Salt Lake Center
09:18PM 45.7069 -103.8739 North 349 402 34,000  Level Salt Lake Center
09:19PM 45.8050 -103.8550 North 353 406 34,000  Level Salt Lake Center
09:20PM 45.9039 -103.8436 North 356 410 34,000 -60 Level Salt Lake Center
09:21PM 46.0025 -103.8278 North 357 411 33,900  Descending Salt Lake Center
09:22PM 46.1003 -103.8156 North 355 409 34,000  Climbing Salt Lake Center
09:23PM 46.2125 -103.7986 North 343 395 34,000  Level Salt Lake Center
09:24PM 46.3036 -103.7844 North 334 384 34,000  Level Salt Lake Center
09:25PM 46.3978 -103.7708 North 337 388 34,000  Level Salt Lake Center
09:26PM 46.4919 -103.7569 North 340 391 34,000 -420 Level Salt Lake Center
09:27PM 46.5883 -103.7433 North 344 396 33,200 -1,320 Descending Salt Lake Center
09:28PM 46.6833 -103.7300 North 344 396 31,300 -1,860 Descending Salt Lake Center
09:29PM 46.7825 -103.7147 North 349 402 29,500 -2,040 Descending Salt Lake Center
09:30PM 46.9019 -103.6956 North 357 411 27,200 -2,100 Descending Salt Lake Center
09:31PM 47.0000 -103.6811 North 357 411 25,300 -1,920 Descending Salt Lake Center
09:32PM 47.0978 -103.6675 North 356 410 23,300 -1,920 Descending Salt Lake Center
09:33PM 47.1972 -103.6525 North 357 411 21,400 -1,800 Descending Salt Lake Center
09:34PM 47.2967 -103.6372 North 359 413 19,700 -1,800 Descending Salt Lake Center
09:36PM 47.3942 -103.6228 North 358 412 17,800 -1,860 Descending Salt Lake Center
09:37PM 47.4861 -103.6094 North 349 402 16,000 -2,160 Descending Salt Lake Center
09:38PM 47.5864 -103.5947 North 324 373 13,400 -2,340 Descending Salt Lake Center
09:39PM 47.6631 -103.5814 North 300 345 11,200 -1,860 Descending Salt Lake Center
09:40PM 47.7364 -103.5700 North 283 326 9,600 -1,560 Descending Salt Lake Center
09:41PM 47.8025 -103.5583 North 260 299 8,100 -1,500 Descending Salt Lake Center
09:42PM 47.8636 -103.5500 North 240 276 6,600 -1,560 Descending Salt Lake Center
09:43PM 47.9344 -103.5397 North 224 258 5,000 -1,260 Descending Salt Lake Center
09:44PM 47.9969 -103.5303 North 223 257 4,000 -600 Descending Salt Lake Center
09:45PM 48.0561 -103.5222 North 221 254 3,800 -120 Descending Salt Lake Center
09:46PM 48.0992 -103.5186 North 184 212 3,800 -180 Level Salt Lake Center
09:47PM 48.1361 -103.5436 336° Northwest 160 184 3,500 -540 Descending Salt Lake Center
09:48PM 48.1556 -103.5881 303° West 140 161 2,700 -780 Descending Salt Lake Center
09:49PM 48.1733 -103.6300 302° West 128 147 2,000 -720 Descending Salt Lake Center
09:51PM 48.1667 -103.6333 North  Level FlightAware Approximate
09:58PM 48.1779 -103.6423 North  Level Estimated